createdAt,value
2018-11-05T00:01:51.683Z,8.10
2018-11-05T00:04:21.239Z,8.10
2018-11-05T00:06:49.627Z,8.00
2018-11-05T00:09:18.073Z,8.00
2018-11-05T00:11:46.512Z,8.00
2018-11-05T00:14:15.127Z,8.00
2018-11-05T00:16:43.616Z,7.90
2018-11-05T00:19:12.482Z,8.00
2018-11-05T00:21:41.011Z,7.90
2018-11-05T00:24:09.443Z,7.90
2018-11-05T00:26:37.858Z,7.90
2018-11-05T00:29:06.922Z,7.90
2018-11-05T00:31:35.367Z,7.90
2018-11-05T00:34:03.856Z,7.90
2018-11-05T00:36:32.268Z,7.90
2018-11-05T00:39:00.702Z,7.90
2018-11-05T00:41:29.126Z,7.90
2018-11-05T00:43:57.549Z,7.90
2018-11-05T00:46:26.111Z,7.80
2018-11-05T00:48:54.581Z,7.80
2018-11-05T00:51:22.992Z,7.90
2018-11-05T00:53:51.436Z,7.90
2018-11-05T00:56:19.880Z,7.90
2018-11-05T00:58:48.292Z,7.90
2018-11-05T01:01:16.713Z,7.90
2018-11-05T01:03:46.538Z,8.00
2018-11-05T01:06:15.124Z,7.90
2018-11-05T01:08:43.690Z,7.90
2018-11-05T01:11:12.155Z,7.90
2018-11-05T01:13:40.674Z,7.90
2018-11-05T01:16:09.074Z,7.90
2018-11-05T01:18:37.553Z,7.90
2018-11-05T01:21:06.550Z,8.00
2018-11-05T01:23:37.012Z,8.00
2018-11-05T01:26:05.542Z,8.00
2018-11-05T01:28:34.056Z,8.00
2018-11-05T01:31:03.056Z,8.00
2018-11-05T01:33:31.518Z,8.00
2018-11-05T01:35:59.942Z,7.90
2018-11-05T01:38:28.376Z,7.90
2018-11-05T01:40:56.836Z,7.90
2018-11-05T01:43:25.442Z,7.90
2018-11-05T01:45:53.863Z,7.90
2018-11-05T01:48:22.437Z,7.90
2018-11-05T01:50:50.937Z,7.90
2018-11-05T01:53:19.383Z,7.90
2018-11-05T01:55:47.813Z,7.90
2018-11-05T01:58:16.735Z,7.90
2018-11-05T02:00:45.211Z,7.90
2018-11-05T02:03:13.833Z,7.90
2018-11-05T02:05:42.289Z,7.80
2018-11-05T02:08:10.693Z,7.80
2018-11-05T02:10:40.317Z,7.80
2018-11-05T02:13:08.754Z,7.80
2018-11-05T02:15:37.846Z,7.80
2018-11-05T02:18:06.420Z,7.80
2018-11-05T02:20:34.917Z,7.80
2018-11-05T02:23:03.357Z,7.70
2018-11-05T02:25:31.864Z,7.70
2018-11-05T02:28:00.310Z,7.70
2018-11-05T02:30:28.805Z,7.70
2018-11-05T02:32:57.858Z,7.80
2018-11-05T02:35:26.263Z,7.80
2018-11-05T02:37:54.720Z,7.80
2018-11-05T02:40:23.241Z,7.80
2018-11-05T02:42:51.682Z,7.90
2018-11-05T02:45:20.844Z,7.90
2018-11-05T02:47:49.435Z,7.90
2018-11-05T02:50:18.426Z,7.90
2018-11-05T02:52:47.975Z,7.80
2018-11-05T02:55:16.470Z,7.80
2018-11-05T02:57:44.975Z,7.80
2018-11-05T03:00:16.002Z,7.70
2018-11-05T03:02:44.430Z,7.70
2018-11-05T03:05:14.087Z,7.70
2018-11-05T03:07:42.924Z,7.60
2018-11-05T03:10:11.944Z,7.60
2018-11-05T03:12:40.901Z,7.60
2018-11-05T03:15:10.732Z,7.50
2018-11-05T03:17:39.225Z,7.50
2018-11-05T03:20:08.999Z,7.50
2018-11-05T03:22:38.106Z,7.50
2018-11-05T03:25:06.747Z,7.50
2018-11-05T03:27:35.482Z,7.50
2018-11-05T03:30:03.935Z,7.50
2018-11-05T03:32:32.366Z,7.40
2018-11-05T03:35:00.781Z,7.50
2018-11-05T03:37:29.240Z,7.50
2018-11-05T03:39:57.643Z,7.50
2018-11-05T03:42:26.112Z,7.50
2018-11-05T03:44:54.647Z,7.40
2018-11-05T03:47:23.059Z,7.30
2018-11-05T03:49:51.509Z,7.40
2018-11-05T03:52:20.009Z,7.30
2018-11-05T03:54:48.420Z,7.30
2018-11-05T03:57:16.897Z,7.30
2018-11-05T03:59:45.344Z,7.40
2018-11-05T04:02:13.741Z,7.40
2018-11-05T04:04:42.195Z,7.30
2018-11-05T04:07:10.699Z,7.30
2018-11-05T04:09:39.642Z,7.30
2018-11-05T04:12:08.062Z,7.30
2018-11-05T04:14:36.536Z,7.30
2018-11-05T04:17:05.137Z,7.30
2018-11-05T04:19:33.664Z,7.30
2018-11-05T04:22:02.121Z,7.30
2018-11-05T04:24:30.548Z,7.20
2018-11-05T04:26:59.904Z,7.20
2018-11-05T04:29:28.345Z,7.20
2018-11-05T04:31:56.830Z,7.20
2018-11-05T04:34:25.236Z,7.20
2018-11-05T04:36:53.690Z,7.20
2018-11-05T04:39:22.141Z,7.10
2018-11-05T04:41:51.137Z,7.10
2018-11-05T04:44:20.292Z,7.10
2018-11-05T04:46:48.718Z,7.00
2018-11-05T04:49:17.324Z,7.00
2018-11-05T04:51:45.812Z,7.00
2018-11-05T04:54:14.306Z,6.90
2018-11-05T04:56:42.807Z,6.90
2018-11-05T04:59:11.216Z,6.90
2018-11-05T05:01:40.530Z,6.80
2018-11-05T05:04:09.052Z,6.80
2018-11-05T05:06:37.500Z,6.80
2018-11-05T05:09:08.758Z,6.80
2018-11-05T05:11:37.298Z,6.80
2018-11-05T05:14:06.677Z,6.70
2018-11-05T05:16:35.436Z,6.70
2018-11-05T05:19:03.928Z,6.80
2018-11-05T05:21:32.439Z,6.80
2018-11-05T05:24:01.222Z,6.80
2018-11-05T05:26:29.709Z,6.80
2018-11-05T05:28:58.294Z,6.80
2018-11-05T05:31:26.909Z,6.80
2018-11-05T05:33:55.418Z,6.80
2018-11-05T05:36:25.052Z,6.80
2018-11-05T05:38:53.543Z,6.70
2018-11-05T05:41:22.188Z,6.70
2018-11-05T05:43:51.053Z,6.70
2018-11-05T05:46:19.487Z,6.70
2018-11-05T05:48:48.048Z,6.70
2018-11-05T05:51:16.907Z,6.70
2018-11-05T05:53:45.397Z,6.70
2018-11-05T05:56:13.824Z,6.70
2018-11-05T05:58:42.336Z,6.60
2018-11-05T06:01:10.777Z,6.50
2018-11-05T06:03:39.193Z,6.60
2018-11-05T06:06:08.021Z,6.60
2018-11-05T06:08:36.453Z,6.70
2018-11-05T06:11:05.309Z,6.80
2018-11-05T06:13:34.003Z,6.80
2018-11-05T06:16:02.573Z,6.80
2018-11-05T06:18:30.998Z,6.90
2018-11-05T06:20:59.643Z,6.90
2018-11-05T06:23:28.169Z,7.00
2018-11-05T06:25:56.605Z,7.00
2018-11-05T06:28:25.100Z,7.00
2018-11-05T06:30:53.727Z,7.00
2018-11-05T06:33:22.189Z,7.00
2018-11-05T06:35:50.660Z,7.00
2018-11-05T06:38:19.095Z,7.00
2018-11-05T06:40:47.577Z,7.10
2018-11-05T06:43:16.003Z,7.10
2018-11-05T06:45:44.531Z,7.10
2018-11-05T06:48:13.781Z,7.20
2018-11-05T06:50:43.099Z,7.30
2018-11-05T06:53:13.157Z,7.30
2018-11-05T06:55:41.645Z,7.30
2018-11-05T06:58:10.343Z,7.30
2018-11-05T07:00:39.065Z,7.40
2018-11-05T07:03:07.895Z,7.40
2018-11-05T07:05:36.651Z,7.40
2018-11-05T07:08:05.337Z,7.50
2018-11-05T07:10:33.804Z,7.50
2018-11-05T07:13:02.982Z,7.50
2018-11-05T07:15:31.469Z,7.50
2018-11-05T07:18:00.482Z,7.50
2018-11-05T07:20:28.890Z,7.60
2018-11-05T07:22:57.305Z,7.60
2018-11-05T07:25:25.856Z,7.60
2018-11-05T07:27:54.291Z,7.70
2018-11-05T07:30:23.869Z,7.70
2018-11-05T07:32:53.594Z,7.80
2018-11-05T07:35:22.053Z,7.80
2018-11-05T07:37:50.593Z,7.90
2018-11-05T07:40:19.711Z,7.90
2018-11-05T07:42:48.167Z,8.00
2018-11-05T07:45:18.047Z,8.10
2018-11-05T07:47:46.801Z,8.10
2018-11-05T07:50:16.220Z,8.20
2018-11-05T07:52:46.123Z,8.20
2018-11-05T07:55:16.267Z,8.20
2018-11-05T07:57:45.854Z,8.20
2018-11-05T08:00:20.528Z,8.10
2018-11-05T08:02:50.167Z,8.10
2018-11-05T08:05:19.562Z,8.10
2018-11-05T08:07:48.358Z,8.10
2018-11-05T08:10:16.835Z,8.10
2018-11-05T08:12:45.435Z,8.10
2018-11-05T08:15:16.914Z,8.10
2018-11-05T08:17:46.386Z,8.10
2018-11-05T08:20:14.799Z,8.10
2018-11-05T08:22:43.324Z,8.20
2018-11-05T08:25:13.380Z,8.20
2018-11-05T08:27:41.796Z,8.30
2018-11-05T08:30:15.089Z,8.30
2018-11-05T08:32:43.542Z,8.40
2018-11-05T08:35:13.623Z,8.50
2018-11-05T08:37:43.601Z,8.60
2018-11-05T08:40:14.462Z,8.60
2018-11-05T08:42:44.464Z,8.70
2018-11-05T08:45:14.898Z,8.80
2018-11-05T08:47:43.432Z,8.90
2018-11-05T08:50:14.133Z,9.10
2018-11-05T08:52:42.516Z,9.20
2018-11-05T08:55:14.184Z,9.40
2018-11-05T08:57:43.138Z,9.50
2018-11-05T09:00:20.824Z,9.60
2018-11-05T09:02:49.741Z,9.60
2018-11-05T09:05:18.866Z,9.70
2018-11-05T09:07:48.166Z,9.70
2018-11-05T09:10:16.795Z,9.80
2018-11-05T09:12:45.107Z,9.90
2018-11-05T09:15:16.838Z,9.90
2018-11-05T09:17:45.902Z,10.00
2018-11-05T09:20:15.416Z,10.00
2018-11-05T09:22:43.889Z,10.10
2018-11-05T09:25:14.342Z,10.10
2018-11-05T09:30:26.497Z,10.20
2018-11-05T09:32:55.164Z,10.30
2018-11-05T09:35:24.208Z,10.40
2018-11-05T09:37:52.697Z,10.30
2018-11-05T09:40:22.517Z,10.30
2018-11-05T09:42:52.118Z,10.30
2018-11-05T09:45:22.041Z,10.30
2018-11-05T09:47:50.468Z,10.30
2018-11-05T09:50:19.493Z,10.40
2018-11-05T09:52:48.158Z,10.50
2018-11-05T09:55:16.841Z,10.50
2018-11-05T09:57:45.259Z,10.50
2018-11-05T10:00:18.319Z,10.60
2018-11-05T10:02:52.885Z,10.70
2018-11-05T10:05:21.214Z,10.80
2018-11-05T10:07:50.415Z,10.80
2018-11-05T10:10:20.521Z,10.80
2018-11-05T10:12:48.854Z,10.90
2018-11-05T10:15:17.926Z,11.00
2018-11-05T10:17:46.445Z,11.00
2018-11-05T10:20:23.637Z,11.10
2018-11-05T10:22:52.108Z,11.10
2018-11-05T10:25:20.694Z,11.10
2018-11-05T10:27:49.923Z,11.20
2018-11-05T10:30:19.790Z,11.20
2018-11-05T10:32:48.356Z,11.20
2018-11-05T10:35:17.252Z,11.30
2018-11-05T10:37:46.366Z,11.30
2018-11-05T10:40:16.785Z,11.40
2018-11-05T10:42:46.111Z,11.40
2018-11-05T10:45:16.835Z,11.40
2018-11-05T10:47:45.306Z,11.60
2018-11-05T10:50:14.961Z,11.50
2018-11-05T10:52:44.952Z,11.60
2018-11-05T10:55:13.409Z,11.60
2018-11-05T10:57:42.338Z,11.60
2018-11-05T11:00:20.124Z,11.70
2018-11-05T11:02:53.870Z,11.70
2018-11-05T11:05:22.866Z,11.70
2018-11-05T11:07:51.945Z,11.80
2018-11-05T11:10:20.375Z,11.70
2018-11-05T11:12:48.910Z,11.80
2018-11-05T11:15:17.441Z,11.80
2018-11-05T11:17:45.822Z,11.90
2018-11-05T11:20:15.651Z,11.90
2018-11-05T11:22:44.096Z,11.90
2018-11-05T11:25:12.575Z,11.90
2018-11-05T11:27:41.510Z,11.90
2018-11-05T11:30:11.911Z,11.90
2018-11-05T11:32:41.618Z,11.90
2018-11-05T11:35:10.686Z,12.00
2018-11-05T11:37:39.362Z,12.10
2018-11-05T11:40:12.818Z,12.20
2018-11-05T11:42:42.000Z,12.20
2018-11-05T11:45:11.066Z,12.20
2018-11-05T11:47:39.517Z,12.20
2018-11-05T11:50:09.429Z,12.30
2018-11-05T11:52:38.784Z,12.30
2018-11-05T11:55:08.794Z,12.30
2018-11-05T11:57:37.287Z,12.30
2018-11-05T12:00:07.074Z,12.30
2018-11-05T12:02:36.928Z,12.30
2018-11-05T12:05:06.686Z,12.30
2018-11-05T12:07:35.056Z,12.50
2018-11-05T12:10:03.614Z,12.50
2018-11-05T12:12:32.120Z,12.40
2018-11-05T12:15:00.792Z,12.50
2018-11-05T12:17:29.028Z,12.40
2018-11-05T12:19:58.748Z,12.40
2018-11-05T12:22:27.170Z,12.40
2018-11-05T12:24:55.648Z,12.40
2018-11-05T12:27:24.161Z,12.50
2018-11-05T12:29:52.593Z,12.50
2018-11-05T12:32:21.061Z,12.50
2018-11-05T12:34:49.607Z,12.60
2018-11-05T12:37:18.038Z,12.70
2018-11-05T12:39:46.473Z,12.70
2018-11-05T12:42:14.990Z,12.80
2018-11-05T12:44:43.466Z,12.80
2018-11-05T12:47:13.178Z,12.90
2018-11-05T12:49:42.161Z,12.90
2018-11-05T12:52:10.590Z,13.00
2018-11-05T12:54:39.021Z,13.00
2018-11-05T12:57:07.462Z,13.10
2018-11-05T12:59:35.935Z,13.10
2018-11-05T13:02:04.402Z,13.10
2018-11-05T13:04:32.851Z,13.20
2018-11-05T13:07:01.338Z,13.20
2018-11-05T13:09:29.811Z,13.20
2018-11-05T13:11:58.251Z,13.30
2018-11-05T13:14:26.836Z,13.30
2018-11-05T13:16:55.308Z,13.40
2018-11-05T13:19:24.591Z,13.40
2018-11-05T13:21:53.136Z,13.40
2018-11-05T13:24:22.150Z,13.40
2018-11-05T13:26:50.642Z,13.50
2018-11-05T13:29:19.763Z,13.50
2018-11-05T13:31:48.192Z,13.50
2018-11-05T13:34:16.688Z,13.50
2018-11-05T13:36:45.319Z,13.60
2018-11-05T13:39:13.667Z,13.50
2018-11-05T13:41:42.105Z,13.60
2018-11-05T13:44:10.537Z,13.60
2018-11-05T13:46:39.274Z,13.60
2018-11-05T13:49:08.153Z,13.60
2018-11-05T13:51:36.097Z,13.60
2018-11-05T13:54:04.823Z,13.70
2018-11-05T13:56:33.304Z,13.60
2018-11-05T13:59:01.763Z,13.60
2018-11-05T14:01:30.257Z,13.60
2018-11-05T14:03:58.718Z,13.70
2018-11-05T14:06:27.135Z,13.70
2018-11-05T14:08:55.614Z,13.70
2018-11-05T14:11:24.048Z,13.70
2018-11-05T14:13:52.530Z,13.70
2018-11-05T14:16:20.969Z,13.70
2018-11-05T14:18:49.401Z,13.70
2018-11-05T14:21:18.601Z,13.80
2018-11-05T14:23:47.092Z,13.70
2018-11-05T14:26:16.260Z,13.80
2018-11-05T14:28:44.864Z,13.90
2018-11-05T14:31:13.089Z,13.80
2018-11-05T14:33:41.524Z,13.80
2018-11-05T14:36:10.040Z,13.80
2018-11-05T14:38:38.598Z,13.70
2018-11-05T14:41:06.972Z,13.80
2018-11-05T14:43:35.485Z,13.80
2018-11-05T14:46:03.963Z,13.80
2018-11-05T14:48:32.886Z,13.80
2018-11-05T14:51:02.100Z,13.80
2018-11-05T14:53:30.517Z,13.80
2018-11-05T14:55:58.972Z,13.70
2018-11-05T14:58:28.604Z,13.70
2018-11-05T15:00:57.069Z,13.70
2018-11-05T15:03:25.597Z,13.70
2018-11-05T15:05:55.147Z,13.70
2018-11-05T15:08:23.721Z,13.70
2018-11-05T15:10:52.231Z,13.60
2018-11-05T15:13:20.673Z,13.60
2018-11-05T15:15:50.238Z,13.60
2018-11-05T15:18:18.832Z,13.60
2018-11-05T15:20:47.292Z,13.60
2018-11-05T15:23:15.753Z,13.50
2018-11-05T15:25:44.370Z,13.50
2018-11-05T15:28:12.994Z,13.40
2018-11-05T15:30:41.511Z,13.40
2018-11-05T15:33:09.974Z,13.40
2018-11-05T15:35:38.450Z,13.40
2018-11-05T15:38:06.898Z,13.40
2018-11-05T15:40:35.353Z,13.30
2018-11-05T15:43:04.059Z,13.30
2018-11-05T15:45:32.565Z,13.20
2018-11-05T15:48:01.138Z,13.20
2018-11-05T15:50:29.573Z,13.20
2018-11-05T15:52:58.430Z,13.10
2018-11-05T15:55:26.508Z,13.10
2018-11-05T15:57:55.833Z,13.00
2018-11-05T16:00:25.218Z,13.00
2018-11-05T16:02:56.370Z,13.00
2018-11-05T16:05:24.781Z,12.90
2018-11-05T16:07:53.224Z,12.90
2018-11-05T16:10:21.953Z,12.80
2018-11-05T16:12:50.657Z,12.80
2018-11-05T16:15:19.284Z,12.70
2018-11-05T16:17:48.358Z,12.70
2018-11-05T16:20:19.177Z,12.60
2018-11-05T16:22:48.622Z,12.60
2018-11-05T16:25:17.142Z,12.60
2018-11-05T16:27:45.897Z,12.50
2018-11-05T16:30:16.895Z,12.40
2018-11-05T16:32:45.846Z,12.30
2018-11-05T16:35:14.462Z,12.30
2018-11-05T16:37:42.976Z,12.20
2018-11-05T16:40:13.452Z,12.20
2018-11-05T16:42:42.069Z,12.20
2018-11-05T16:45:10.978Z,12.10
2018-11-05T16:47:39.804Z,12.10
2018-11-05T16:50:12.119Z,12.10
2018-11-05T16:52:40.653Z,12.00
2018-11-05T16:55:10.777Z,12.00
2018-11-05T16:57:39.552Z,12.00
2018-11-05T17:00:08.232Z,12.00
